Time;durP1;ratioP1;P1;durP2;ratioP2;P2;SDS_P1;SDS_P2;PMS_P1;PMS_P2;Temp;Humidity;BMP_temperature;BMP_pressure;BME280_temperature;BME280_humidity;BME280_pressure;Samples;Min_cycle;Max_cycle;Signal;HPM_P1;HPM_P2
2023/09/10 10:45:56;;;;;;;8.13;4.88;;;28.90;72.60;;;;;;1313694;26;21444;-77
2023/09/10 10:48:33;;;;;;;7.50;5.25;;;29.10;71.30;;;;;;5005997;28;20084;-76
2023/09/10 10:51:11;;;;;;;6.78;4.90;;;29.20;71.30;;;;;;4983055;28;20041;-75
2023/09/10 10:53:36;;;;;;;;;;;29.30;70.50;;;;;;4987072;28;20323;-76
2023/09/10 10:56:05;;;;;;;6.80;4.75;;;29.40;69.80;;;;;;4973306;28;19921;-78
2023/09/10 10:58:55;;;;;;;8.70;5.20;;;29.70;69.90;;;;;;4926388;28;20340;-77
2023/09/10 11:01:20;;;;;;;10.00;5.35;;;29.70;69.20;;;;;;4975830;28;20042;-76
2023/09/10 11:04:30;;;;;;;7.07;4.90;;;29.80;69.40;;;;;;4970946;28;20033;-76
2023/09/10 11:07:19;;;;;;;6.43;4.70;;;30.10;69.10;;;;;;4957504;28;20030;-76
2023/09/10 11:10:00;;;;;;;7.32;5.10;;;30.50;68.50;;;;;;4969262;28;20042;-77
2023/09/10 11:12:32;;;;;;;6.88;4.47;;;31.30;67.00;;;;;;4985735;28;20428;-77
2023/09/10 11:15:00;;;;;;;9.60;5.10;;;31.80;65.90;;;;;;4986057;28;20038;-79
2023/09/10 11:17:33;;;;;;;7.97;4.53;;;32.70;64.70;;;;;;4985912;28;20023;-77
2023/09/10 11:20:08;;;;;;;7.20;4.78;;;33.80;62.20;;;;;;4986256;28;20050;-75
2023/09/10 11:23:06;;;;;;;8.00;4.28;;;34.80;61.30;;;;;;4987798;28;20317;-74
2023/09/10 11:25:39;;;;;;;6.95;4.57;;;35.80;60.00;;;;;;4970183;28;20035;-76
2023/09/10 11:28:42;;;;;;;8.00;4.07;;;36.30;58.90;;;;;;4985339;28;20070;-77
2023/09/10 11:34:45;;;;;;;5.85;4.32;;;37.80;56.40;;;;;;5188535;23;20030;-80
2023/09/10 11:37:15;;;;;;;6.15;4.38;;;38.10;55.70;;;;;;4996968;28;20030;-77
2023/09/10 11:47:07;;;;;;;7.88;3.70;;;39.80;53.30;;;;;;4966210;29;20026;-78
2023/09/10 11:49:37;;;;;;;;;;;39.90;52.70;;;;;;4949575;29;20216;-76
2023/09/10 11:52:23;;;;;;;6.63;3.90;;;39.90;52.00;;;;;;4949217;29;19927;-77
2023/09/10 11:54:49;;;;;;;9.67;4.27;;;40.30;52.00;;;;;;4982013;28;20034;-76
2023/09/10 11:57:21;;;;;;;6.05;4.25;;;39.70;52.00;;;;;;4951711;28;20695;-76
2023/09/10 11:59:56;;;;;;;7.07;3.80;;;40.80;51.50;;;;;;4985648;28;20031;-75
2023/09/10 12:02:24;;;;;;;6.18;3.65;;;41.20;51.00;;;;;;4984856;28;20257;-77
2023/09/10 12:04:59;;;;;;;6.32;3.80;;;41.40;50.80;;;;;;4985086;28;20387;-76
2023/09/10 12:07:25;;;;;;;5.82;4.32;;;41.70;51.00;;;;;;4984954;28;20098;-75
2023/09/10 12:09:50;;;;;;;6.40;4.20;;;42.00;49.90;;;;;;4984971;28;20082;-76
2023/09/10 12:12:46;;;;;;;5.65;3.70;;;42.00;49.90;;;;;;4985066;28;20313;-76
2023/09/10 12:15:15;;;;;;;6.60;4.07;;;42.00;50.10;;;;;;4984873;28;20327;-76
2023/09/10 12:17:41;;;;;;;5.93;3.78;;;43.00;49.40;;;;;;4967063;28;20062;-77
2023/09/10 12:20:32;;;;;;;5.88;3.65;;;43.20;48.40;;;;;;4984849;28;20339;-76
2023/09/10 12:23:00;;;;;;;4.50;3.72;;;43.40;48.10;;;;;;4975786;28;20057;-77
2023/09/10 12:25:27;;;;;;;7.07;3.38;;;43.20;48.20;;;;;;4984785;28;20371;-78
2023/09/10 12:28:15;;;;;;;6.70;3.50;;;43.30;47.30;;;;;;4984783;28;20321;-77
2023/09/10 12:31:23;;;;;;;5.38;3.42;;;43.50;48.40;;;;;;4968024;28;20042;-77
2023/09/10 12:34:00;;;;;;;5.18;3.78;;;43.50;47.40;;;;;;4925277;29;20054;-77
2023/09/10 12:36:30;;;;;;;6.78;3.75;;;43.70;47.50;;;;;;4959489;29;20058;-78
2023/09/10 12:38:56;;;;;;;6.90;3.33;;;43.80;47.20;;;;;;4947435;29;20086;-75
2023/09/10 12:41:26;;;;;;;8.25;3.88;;;43.70;46.90;;;;;;4974159;28;20018;-77
2023/09/10 12:43:55;;;;;;;4.03;3.42;;;44.00;46.40;;;;;;4981244;28;20053;-76
2023/09/10 12:46:23;;;;;;;11.68;3.83;;;44.50;46.60;;;;;;4965320;29;20340;-76
2023/09/10 12:48:49;;;;;;;5.55;3.55;;;45.10;46.30;;;;;;4948286;29;20016;-78
2023/09/10 12:51:15;;;;;;;4.90;3.37;;;45.70;45.40;;;;;;4965224;29;20042;-77
2023/09/10 12:53:41;;;;;;;4.75;3.30;;;45.20;45.90;;;;;;4964864;29;20309;-77
2023/09/10 12:56:07;;;;;;;5.30;3.70;;;45.90;44.90;;;;;;4965174;29;20049;-78
2023/09/10 12:58:33;;;;;;;6.53;3.40;;;45.80;44.70;;;;;;4964351;29;20082;-79
2023/09/10 13:01:03;;;;;;;5.40;3.33;;;46.40;44.90;;;;;;4965349;29;20042;-79
2023/09/10 13:03:45;;;;;;;4.78;3.47;;;46.60;44.60;;;;;;4964342;29;20046;-78
2023/09/10 13:06:11;;;;;;;4.80;3.47;;;46.70;43.60;;;;;;4965741;29;20035;-77
2023/09/10 13:08:46;;;;;;;8.32;4.05;;;46.80;43.70;;;;;;4966427;29;20262;-78
2023/09/10 13:11:11;;;;;;;4.65;3.38;;;46.10;43.80;;;;;;4951546;29;20046;-77
2023/09/10 13:13:38;;;;;;;4.83;3.30;;;46.70;43.60;;;;;;4958193;29;20039;-78
2023/09/10 13:16:06;;;;;;;6.78;3.75;;;47.20;43.20;;;;;;4957142;29;20027;-78
2023/09/10 13:18:35;;;;;;;4.43;3.07;;;46.70;43.30;;;;;;4973862;29;20047;-78
2023/09/10 13:21:00;;;;;;;4.47;3.08;;;46.80;42.90;;;;;;4965134;29;20027;-79
2023/09/10 13:26:12;;;;;;;4.90;3.28;;;46.80;42.50;;;;;;4931816;29;20086;-77
2023/09/10 13:28:45;;;;;;;7.22;3.67;;;46.90;43.00;;;;;;4946988;29;20268;-76
2023/09/10 13:31:11;;;;;;;5.18;3.35;;;47.00;43.00;;;;;;4964209;29;20031;-79
2023/09/10 13:33:51;;;;;;;7.00;3.53;;;47.50;42.30;;;;;;4964250;29;20045;-76
2023/09/10 13:36:20;;;;;;;4.68;3.75;;;47.30;42.50;;;;;;4936981;28;20058;-78
2023/09/10 13:38:53;;;;;;;5.20;3.13;;;48.10;42.10;;;;;;4964695;28;20039;-78
2023/09/10 13:41:25;;;;;;;4.10;3.40;;;48.40;41.30;;;;;;4982288;28;20034;-79
2023/09/10 13:43:57;;;;;;;5.28;3.40;;;48.30;41.40;;;;;;4983565;28;20038;-78
2023/09/10 13:46:27;;;;;;;4.40;3.17;;;47.80;41.30;;;;;;4966602;28;20031;-78
2023/09/10 13:48:58;;;;;;;6.65;3.80;;;48.40;41.70;;;;;;4983698;28;20031;-78
2023/09/10 13:51:24;;;;;;;5.63;3.20;;;48.50;41.30;;;;;;4966186;28;20240;-78
2023/09/10 13:53:53;;;;;;;5.93;3.13;;;48.90;41.40;;;;;;4968217;29;20035;-78
2023/09/10 13:56:18;;;;;;;4.27;2.80;;;49.30;40.80;;;;;;4968046;29;20070;-76
2023/09/10 13:59:05;;;;;;;3.77;2.83;;;49.20;40.60;;;;;;4950933;29;20098;-77
2023/09/10 14:01:40;;;;;;;5.25;3.35;;;49.60;40.40;;;;;;4985981;28;20050;-77
2023/09/10 14:04:06;;;;;;;6.43;2.90;;;50.50;40.10;;;;;;4987165;28;20320;-78
2023/09/10 14:06:32;;;;;;;4.77;3.40;;;50.20;39.80;;;;;;4987032;28;20014;-77
2023/09/10 14:09:00;;;;;;;5.00;3.20;;;49.90;39.80;;;;;;4987619;28;20320;-76
2023/09/10 14:11:29;;;;;;;6.40;3.33;;;50.00;39.70;;;;;;4987406;28;20145;-79
2023/09/10 14:13:55;;;;;;;6.40;3.45;;;49.50;39.90;;;;;;4987136;28;20256;-78
2023/09/10 14:16:24;;;;;;;3.72;2.60;;;49.80;40.10;;;;;;4954047;28;20030;-76
2023/09/10 14:18:59;;;;;;;6.25;2.90;;;49.90;39.70;;;;;;4970559;28;20078;-79
2023/09/10 14:21:30;;;;;;;4.68;2.72;;;49.80;39.40;;;;;;4987237;28;20042;-77
2023/09/10 14:23:59;;;;;;;4.88;3.03;;;50.20;39.40;;;;;;4970553;28;20038;-77
2023/09/10 14:26:45;;;;;;;7.13;2.70;;;50.30;39.60;;;;;;4987102;28;20061;-79
2023/09/10 14:29:16;;;;;;;;;;;50.10;39.90;;;;;;4948081;28;20043;-78
2023/09/10 14:32:01;;;;;;;5.88;3.10;;;50.60;39.00;;;;;;4967676;28;19913;-81
2023/09/10 14:34:27;;;;;;;5.18;3.00;;;50.10;39.50;;;;;;4987039;28;20038;-78
2023/09/10 14:36:53;;;;;;;4.70;3.00;;;50.20;39.20;;;;;;4996786;28;20052;-76
2023/09/10 14:39:19;;;;;;;5.28;3.10;;;50.20;39.20;;;;;;4973042;28;20105;-81
2023/09/10 14:41:44;;;;;;;3.97;2.90;;;50.40;39.30;;;;;;5005997;28;20216;-77
2023/09/10 14:44:31;;;;;;;7.10;2.90;;;50.80;38.80;;;;;;5006347;28;20045;-79
2023/09/10 14:47:09;;;;;;;5.38;2.78;;;51.40;38.60;;;;;;4989318;28;20449;-78
2023/09/10 14:49:41;;;;;;;6.38;3.10;;;50.90;39.20;;;;;;5005708;28;20042;-77
2023/09/10 14:52:07;;;;;;;3.90;3.20;;;50.10;39.10;;;;;;5005778;28;20296;-79
2023/09/10 14:54:32;;;;;;;6.00;3.03;;;50.00;39.90;;;;;;5005686;28;20022;-78
2023/09/10 14:57:01;;;;;;;4.47;2.73;;;50.30;38.70;;;;;;4988519;28;20048;-79
2023/09/10 14:59:27;;;;;;;5.22;3.05;;;50.50;39.10;;;;;;5006004;28;20110;-78
2023/09/10 15:01:53;;;;;;;6.68;2.72;;;51.20;38.90;;;;;;4971211;28;20023;-80
2023/09/10 15:04:18;;;;;;;5.55;2.67;;;50.60;38.70;;;;;;4968769;28;20040;-79
2023/09/10 15:06:45;;;;;;;6.95;3.38;;;50.90;38.80;;;;;;4969414;28;20038;-77
2023/09/10 15:09:11;;;;;;;8.25;3.00;;;50.60;39.10;;;;;;4972623;28;20073;-78
2023/09/10 15:11:38;;;;;;;5.00;3.55;;;50.50;39.20;;;;;;4972150;28;20251;-77
2023/09/10 15:14:07;;;;;;;5.25;3.15;;;50.60;38.80;;;;;;4972527;28;20018;-77
2023/09/10 15:16:32;;;;;;;5.10;2.75;;;50.50;39.50;;;;;;4986523;28;20038;-80
2023/09/10 15:18:58;;;;;;;6.03;3.00;;;50.60;39.20;;;;;;5005510;28;20069;-76
2023/09/10 15:21:27;;;;;;;4.93;3.08;;;50.40;38.50;;;;;;5005529;28;20079;-78
2023/09/10 15:23:53;;;;;;;6.63;3.13;;;50.50;38.80;;;;;;4988046;28;20204;-78
2023/09/10 15:26:25;;;;;;;7.10;3.20;;;50.30;38.80;;;;;;4986283;28;20070;-78
2023/09/10 15:29:08;;;;;;;6.03;3.05;;;50.00;39.20;;;;;;4987947;28;20429;-78
2023/09/10 15:31:35;;;;;;;4.35;3.17;;;50.10;39.70;;;;;;4987301;28;20042;-77
2023/09/10 15:34:02;;;;;;;4.95;3.42;;;50.00;39.60;;;;;;5005480;28;20227;-77
2023/09/10 15:36:43;;;;;;;7.32;3.45;;;50.50;39.30;;;;;;4989049;28;20046;-78
2023/09/10 15:39:12;;;;;;;4.50;3.78;;;50.30;38.90;;;;;;5005291;28;20050;-76
2023/09/10 15:42:04;;;;;;;5.05;3.10;;;50.00;39.00;;;;;;5004853;28;20025;-78
2023/09/10 15:44:52;;;;;;;7.07;3.80;;;49.80;39.30;;;;;;5005713;28;20042;-77
2023/09/10 15:47:17;;;;;;;3.75;3.00;;;49.60;38.90;;;;;;5004661;28;20030;-76
2023/09/10 15:50:05;;;;;;;6.33;3.37;;;49.10;39.20;;;;;;5004707;28;20022;-77
2023/09/10 15:52:32;;;;;;;5.57;3.35;;;48.60;39.80;;;;;;4972644;28;20069;-77
2023/09/10 15:55:03;;;;;;;4.63;3.10;;;48.80;39.70;;;;;;5004940;28;20030;-77
2023/09/10 15:57:53;;;;;;;6.30;3.75;;;48.90;39.90;;;;;;5005005;28;20039;-77
2023/09/10 16:00:18;;;;;;;5.07;3.17;;;48.80;39.80;;;;;;5004654;28;20046;-77
2023/09/10 16:03:07;;;;;;;5.57;3.13;;;48.90;39.70;;;;;;4945034;29;20051;-78
2023/09/10 16:05:41;;;;;;;4.80;3.00;;;48.50;39.60;;;;;;4945272;29;20333;-78
2023/09/10 16:08:32;;;;;;;6.15;3.30;;;48.30;40.10;;;;;;4944481;29;20046;-77
2023/09/10 16:13:54;;;;;;;6.63;3.30;;;48.20;40.10;;;;;;4944421;29;20408;-78
2023/09/10 16:16:32;;;;;;;5.05;3.40;;;48.20;40.10;;;;;;4945045;29;20040;-78
2023/09/10 16:19:07;;;;;;;5.00;3.50;;;48.00;40.10;;;;;;4944306;29;20048;-77
2023/09/10 16:21:42;;;;;;;9.00;3.50;;;47.20;40.20;;;;;;4944411;29;20046;-78
2023/09/10 16:24:08;;;;;;;4.38;3.45;;;47.20;40.80;;;;;;4944903;29;20043;-78
2023/09/10 16:27:01;;;;;;;4.90;3.50;;;47.40;41.30;;;;;;4928843;29;20114;-76
2023/09/10 16:29:32;;;;;;;6.40;3.88;;;47.00;40.70;;;;;;4944297;29;20046;-77
2023/09/10 16:31:58;;;;;;;5.38;2.88;;;46.90;40.80;;;;;;4944318;29;20043;-75
2023/09/10 16:34:39;;;;;;;6.60;3.50;;;46.60;41.20;;;;;;4944569;29;20059;-78
2023/09/10 16:37:05;;;;;;;6.60;3.53;;;46.50;41.40;;;;;;4944171;29;20058;-77
2023/09/10 16:39:34;;;;;;;6.53;3.80;;;46.20;41.60;;;;;;4937706;28;20038;-77
2023/09/10 16:42:03;;;;;;;6.07;4.15;;;45.80;41.70;;;;;;4966813;28;20023;-77
2023/09/10 16:44:37;;;;;;;5.60;3.30;;;45.30;41.70;;;;;;4984498;28;20278;-78
2023/09/10 16:47:06;;;;;;;10.57;4.18;;;44.80;42.00;;;;;;4984638;28;20101;-77
2023/09/10 16:49:32;;;;;;;8.77;5.47;;;44.60;43.10;;;;;;4963791;28;20137;-78
2023/09/10 16:51:58;;;;;;;8.15;5.78;;;44.00;43.20;;;;;;4984316;28;20030;-78
2023/09/10 16:54:29;;;;;;;12.68;5.72;;;43.10;44.10;;;;;;4984203;28;20027;-78
2023/09/10 16:57:01;;;;;;;9.68;6.75;;;41.90;45.00;;;;;;4984082;28;20034;-77
2023/09/10 16:59:50;;;;;;;7.38;5.20;;;40.40;46.30;;;;;;4984407;28;20241;-77
2023/09/10 17:02:24;;;;;;;10.27;6.68;;;39.40;47.50;;;;;;4984777;28;20045;-77
2023/09/10 17:04:56;;;;;;;9.70;5.82;;;38.30;48.80;;;;;;4966622;28;20039;-77
2023/09/10 17:07:22;;;;;;;6.85;5.30;;;37.40;49.70;;;;;;4984060;28;20047;-77
2023/09/10 17:09:53;;;;;;;7.38;4.78;;;36.70;50.90;;;;;;4983490;28;20054;-77
2023/09/10 17:12:46;;;;;;;7.72;4.68;;;35.70;51.90;;;;;;4984062;28;20027;-79
2023/09/10 17:15:11;;;;;;;6.88;4.18;;;35.40;52.70;;;;;;4974892;28;20113;-77
2023/09/10 17:17:40;;;;;;;6.63;4.57;;;34.90;54.00;;;;;;4984133;28;20038;-78
2023/09/10 17:20:09;;;;;;;8.55;4.85;;;34.50;54.00;;;;;;4966680;28;20030;-78
2023/09/10 17:22:58;;;;;;;6.53;4.50;;;34.30;54.30;;;;;;4950956;28;20027;-78
2023/09/10 17:25:25;;;;;;;6.40;4.60;;;34.00;55.00;;;;;;4930806;28;20057;-78
2023/09/10 17:27:56;;;;;;;8.02;4.88;;;33.80;55.40;;;;;;4966829;28;20194;-77
2023/09/10 17:30:32;;;;;;;8.10;5.13;;;33.70;55.30;;;;;;4965594;28;20058;-77
2023/09/10 17:33:32;;;;;;;6.60;5.20;;;33.30;55.70;;;;;;4963230;29;20035;-78
2023/09/10 17:36:04;;;;;;;6.78;4.90;;;33.10;56.60;;;;;;4965136;28;20051;-76
2023/09/10 17:38:32;;;;;;;9.02;5.22;;;32.90;57.00;;;;;;4984085;28;20076;-77
2023/09/10 17:40:58;;;;;;;8.07;5.40;;;32.80;57.30;;;;;;4983748;28;20253;-79
2023/09/10 17:43:27;;;;;;;8.13;5.35;;;32.60;57.10;;;;;;4983857;28;20101;-78
2023/09/10 17:45:56;;;;;;;8.30;5.47;;;32.50;58.00;;;;;;4950251;28;20034;-79
2023/09/10 17:48:27;;;;;;;7.00;5.45;;;32.30;58.10;;;;;;4983831;28;20039;-77
2023/09/10 17:51:08;;;;;;;8.73;5.65;;;32.10;58.40;;;;;;4968432;28;20039;-77
2023/09/10 17:53:54;;;;;;;7.60;5.38;;;31.90;59.30;;;;;;4982857;28;20031;-79
2023/09/10 17:56:27;;;;;;;7.90;6.15;;;31.70;59.50;;;;;;4966532;28;20046;-77
2023/09/10 17:59:02;;;;;;;6.70;5.55;;;31.40;59.60;;;;;;4983208;28;20038;-76
2023/09/10 18:01:43;;;;;;;8.93;5.07;;;31.30;60.00;;;;;;4982645;28;20097;-78
2023/09/10 18:04:20;;;;;;;9.02;5.57;;;31.10;60.40;;;;;;4994678;28;20030;-78
2023/09/10 18:06:46;;;;;;;8.45;5.90;;;30.90;60.60;;;;;;5005585;28;20034;-78
2023/09/10 18:09:12;;;;;;;8.90;6.15;;;30.60;61.50;;;;;;5006461;28;20029;-77
2023/09/10 18:11:44;;;;;;;8.52;6.30;;;30.30;62.70;;;;;;5006552;23;20042;-77
2023/09/10 18:14:10;;;;;;;7.20;5.65;;;30.00;63.70;;;;;;5035062;23;20043;-78
2023/09/10 18:19:28;;;;;;;8.65;6.68;;;29.60;65.00;;;;;;5078985;23;20050;-76
2023/09/10 18:22:06;;;;;;;10.60;6.20;;;29.40;65.30;;;;;;4982789;28;20026;-76
2023/09/10 18:24:44;;;;;;;8.95;6.25;;;29.30;65.20;;;;;;4982556;28;20033;-76
2023/09/10 18:27:10;;;;;;;7.47;5.60;;;29.10;66.00;;;;;;4983557;28;20031;-75
2023/09/10 18:29:43;;;;;;;8.95;5.57;;;28.80;66.50;;;;;;4981951;28;20261;-76
2023/09/10 18:32:09;;;;;;;9.50;5.75;;;28.70;66.90;;;;;;4981555;28;20062;-78
2023/09/10 18:34:41;;;;;;;10.23;6.07;;;28.70;67.00;;;;;;4977210;28;20031;-76
2023/09/10 18:37:07;;;;;;;10.63;6.72;;;28.60;66.80;;;;;;4933011;29;20110;-77
2023/09/10 18:39:32;;;;;;;8.88;6.40;;;28.30;67.50;;;;;;4934804;29;20027;-78
2023/09/10 18:42:01;;;;;;;8.80;5.93;;;28.10;68.00;;;;;;4950207;29;20053;-77
2023/09/10 18:44:27;;;;;;;7.95;5.88;;;28.00;68.00;;;;;;4967530;29;20028;-77
2023/09/10 18:47:05;;;;;;;10.35;6.80;;;27.90;68.00;;;;;;4967272;29;20065;-78
2023/09/10 18:49:35;;;;;;;9.57;6.97;;;27.90;68.50;;;;;;4967443;29;20034;-77
2023/09/10 18:52:14;;;;;;;9.02;5.72;;;27.70;68.60;;;;;;4949622;29;20221;-77
2023/09/10 18:54:40;;;;;;;8.52;6.07;;;27.70;68.80;;;;;;4963170;28;20031;-77
2023/09/10 18:57:07;;;;;;;8.38;6.10;;;27.50;69.40;;;;;;4949866;29;20082;-78
2023/09/10 18:59:43;;;;;;;8.88;6.00;;;27.40;69.70;;;;;;4934440;29;20050;-77
2023/09/10 19:02:42;;;;;;;8.50;6.30;;;27.40;69.60;;;;;;4950789;29;20050;-77
2023/09/10 19:05:14;;;;;;;;;;;27.20;70.10;;;;;;4892687;29;20045;-77
2023/09/10 19:07:40;;;;;;;10.25;6.65;;;26.90;70.90;;;;;;4877122;29;19907;-77
2023/09/10 19:10:11;;;;;;;11.02;6.90;;;26.60;71.90;;;;;;4876604;29;20370;-77
2023/09/10 19:13:17;;;;;;;12.57;6.53;;;26.30;72.60;;;;;;4892445;29;20093;-78
2023/09/10 19:16:03;;;;;;;9.45;6.50;;;26.40;72.80;;;;;;4869370;29;20073;-77
2023/09/10 19:19:01;;;;;;;12.65;6.88;;;26.30;73.10;;;;;;4869843;29;20121;-78
2023/09/10 19:22:29;;;;;;;10.98;7.63;;;26.30;72.90;;;;;;4873783;29;20044;-78
2023/09/10 19:24:57;;;;;;;10.15;6.97;;;26.20;73.20;;;;;;4883668;29;20165;-77
2023/09/10 19:27:23;;;;;;;10.35;7.78;;;26.20;73.10;;;;;;4907863;29;20040;-77
2023/09/10 19:29:49;;;;;;;10.63;6.93;;;26.20;72.80;;;;;;4876178;29;20032;-77
2023/09/10 19:32:44;;;;;;;7.93;6.10;;;26.30;72.60;;;;;;4891953;29;20032;-77
2023/09/10 19:35:14;;;;;;;7.85;5.65;;;26.20;72.10;;;;;;4861179;29;20362;-78
2023/09/10 19:37:40;;;;;;;9.07;6.35;;;26.10;72.00;;;;;;4889095;29;20366;-78
2023/09/10 19:40:18;;;;;;;11.60;7.90;;;26.10;71.90;;;;;;4880502;29;20110;-79
2023/09/10 19:42:46;;;;;;;11.40;6.95;;;26.10;73.60;;;;;;4911001;29;20334;-77
2023/09/10 19:45:27;;;;;;;9.40;5.80;;;26.00;73.40;;;;;;4908299;29;20032;-77
2023/09/10 19:48:08;;;;;;;7.90;5.90;;;25.90;73.20;;;;;;4909882;29;20028;-78
2023/09/10 19:51:12;;;;;;;11.10;5.90;;;25.70;73.40;;;;;;4877374;29;20219;-78
2023/09/10 19:53:52;;;;;;;9.43;5.25;;;25.50;73.50;;;;;;4873357;29;20119;-77
2023/09/10 19:56:37;;;;;;;7.45;5.55;;;25.50;73.60;;;;;;4855518;29;20030;-78
2023/09/10 19:59:13;;;;;;;7.55;5.65;;;25.40;73.90;;;;;;4851098;29;20352;-78
2023/09/10 20:05:22;;;;;;;9.73;6.13;;;25.20;74.00;;;;;;4851349;29;20085;-77
2023/09/10 20:20:17;;;;;;;8.70;5.75;;;24.80;75.50;;;;;;4832780;29;20359;-78
2023/09/10 20:30:45;;;;;;;8.93;6.00;;;24.60;77.40;;;;;;4883182;29;20028;-77
2023/09/10 20:33:34;;;;;;;9.63;6.22;;;24.40;77.80;;;;;;4856161;29;20034;-76
2023/09/10 20:36:06;;;;;;;8.82;6.10;;;24.30;78.50;;;;;;4871763;29;20040;-77
2023/09/10 20:38:32;;;;;;;8.85;5.57;;;24.10;79.20;;;;;;4872129;29;20033;-77
2023/09/10 20:41:21;;;;;;;8.00;6.03;;;24.00;78.90;;;;;;4857307;29;20052;-77
2023/09/10 20:44:38;;;;;;;7.40;5.70;;;24.00;78.90;;;;;;4857111;29;20045;-77
2023/09/10 20:47:54;;;;;;;8.43;6.10;;;23.90;78.70;;;;;;4813862;29;20081;-77
2023/09/10 20:50:26;;;;;;;8.90;5.95;;;23.90;79.40;;;;;;4818604;29;20042;-77
2023/09/10 20:53:24;;;;;;;7.47;6.05;;;23.80;80.00;;;;;;4813619;29;20333;-78
2023/09/10 20:55:52;;;;;;;;;;;23.70;80.70;;;;;;4814651;29;20046;-77
2023/09/10 20:58:21;;;;;;;8.93;6.05;;;23.60;80.10;;;;;;4829317;29;19921;-77
2023/09/10 21:00:47;;;;;;;10.52;6.10;;;23.60;80.20;;;;;;4828220;29;20294;-77
2023/09/10 21:03:31;;;;;;;9.43;6.43;;;23.60;80.00;;;;;;4815951;29;20030;-77
2023/09/10 21:06:00;;;;;;;9.40;6.82;;;23.60;81.60;;;;;;4831908;29;20076;-78
2023/09/10 21:12:26;;;;;;;11.50;7.20;;;23.40;82.10;;;;;;4814006;29;20030;-77
2023/09/10 21:15:20;;;;;;;8.90;7.00;;;23.20;83.20;;;;;;4809284;29;20050;-77
2023/09/10 21:22:11;;;;;;;8.60;7.00;;;23.00;83.80;;;;;;4794425;30;20373;-76
2023/09/10 21:24:42;;;;;;;7.85;6.55;;;22.90;84.80;;;;;;4823449;29;20042;-77
2023/09/10 21:27:28;;;;;;;10.13;7.13;;;22.90;85.00;;;;;;4853993;29;20088;-77
2023/09/10 21:29:53;;;;;;;9.27;6.65;;;22.80;85.00;;;;;;4855659;29;20104;-77
2023/09/10 21:55:50;;;;;;;10.48;7.70;;;22.60;90.10;;;;;;4635623;27;20048;-77
2023/09/10 21:58:19;;;;;;;9.88;7.65;;;22.40;88.10;;;;;;4893628;29;20066;-77
2023/09/10 22:00:47;;;;;;;10.95;8.30;;;21.60;91.90;;;;;;4914098;29;20083;-78
2023/09/10 22:03:16;;;;;;;;;;;22.40;91.80;;;;;;4905357;29;20035;-77
2023/09/10 22:05:48;;;;;;;11.07;7.45;;;22.50;95.40;;;;;;4893424;29;19937;-78
2023/09/10 22:08:32;;;;;;;10.80;8.20;;;22.50;92.50;;;;;;4928015;29;20031;-76
2023/09/10 22:11:23;;;;;;;10.90;7.80;;;22.40;93.10;;;;;;4912857;29;20031;-79
2023/09/10 22:14:15;;;;;;;13.68;8.40;;;22.30;93.60;;;;;;4927454;29;20040;-77
2023/09/10 22:16:41;;;;;;;9.95;8.27;;;22.40;91.00;;;;;;4893355;29;20119;-77
2023/09/10 22:19:11;;;;;;;11.43;8.23;;;22.10;88.60;;;;;;4925559;29;20032;-77
2023/09/10 22:21:48;;;;;;;9.68;7.47;;;22.10;89.50;;;;;;4916076;29;20039;-77
2023/09/10 22:24:17;;;;;;;11.70;8.90;;;22.00;88.60;;;;;;4899588;29;20067;-76
2023/09/10 22:26:44;;;;;;;12.05;8.20;;;21.90;89.50;;;;;;4896298;29;20349;-77
2023/09/10 22:29:13;;;;;;;12.18;8.20;;;22.00;89.30;;;;;;4912644;29;20083;-77
2023/09/10 22:31:39;;;;;;;9.88;8.05;;;21.90;89.00;;;;;;4912110;29;20059;-77
2023/09/10 22:34:04;;;;;;;11.35;7.75;;;21.80;90.00;;;;;;4931693;29;20042;-78
2023/09/10 22:36:30;;;;;;;10.40;8.02;;;21.80;90.00;;;;;;4931478;29;20027;-77
2023/09/10 22:39:07;;;;;;;10.48;7.25;;;21.70;90.20;;;;;;4931321;29;20027;-77
2023/09/10 22:41:33;;;;;;;10.95;7.88;;;21.70;89.40;;;;;;4931140;29;20047;-78
2023/09/10 22:43:59;;;;;;;9.88;7.97;;;21.60;90.30;;;;;;4931228;29;20038;-77
2023/09/10 22:46:28;;;;;;;10.40;7.55;;;21.60;90.40;;;;;;4958923;29;20027;-76
2023/09/10 22:48:56;;;;;;;11.07;6.95;;;21.50;90.50;;;;;;4948158;29;20042;-78
2023/09/10 22:51:22;;;;;;;9.95;7.68;;;21.50;90.20;;;;;;4958923;29;20060;-77
2023/09/10 22:53:50;;;;;;;10.55;7.13;;;21.50;90.80;;;;;;4950326;29;20051;-79
2023/09/10 22:56:22;;;;;;;12.85;8.05;;;21.40;89.70;;;;;;4950435;29;20340;-77
2023/09/10 22:59:13;;;;;;;10.77;7.07;;;21.40;90.80;;;;;;4936938;29;20138;-77
2023/09/10 23:01:40;;;;;;;12.05;7.82;;;21.40;90.30;;;;;;4924266;29;20067;-77
2023/09/10 23:04:09;;;;;;;9.63;7.35;;;21.40;90.70;;;;;;4938090;29;20048;-76
2023/09/10 23:06:35;;;;;;;9.60;6.80;;;21.30;90.60;;;;;;4944909;28;20068;-76
2023/09/10 23:09:00;;;;;;;11.05;7.10;;;21.30;90.80;;;;;;4961064;28;20103;-78
2023/09/10 23:11:26;;;;;;;10.55;6.43;;;21.20;90.80;;;;;;4944963;28;20039;-77
2023/09/10 23:13:52;;;;;;;11.60;6.97;;;21.10;91.20;;;;;;4950184;29;20038;-77
2023/09/10 23:16:20;;;;;;;10.32;7.20;;;21.10;91.40;;;;;;4947427;29;20044;-76
2023/09/10 23:18:46;;;;;;;;;;;21.00;91.60;;;;;;4931374;29;20332;-77
2023/09/10 23:21:12;;;;;;;8.57;6.00;;;20.90;91.90;;;;;;4947030;29;19906;-76
2023/09/10 23:23:42;;;;;;;10.48;6.78;;;20.90;91.60;;;;;;4945854;29;20032;-76
2023/09/10 23:26:21;;;;;;;10.23;6.90;;;20.80;91.70;;;;;;4930266;29;20055;-77
2023/09/10 23:28:49;;;;;;;9.70;7.20;;;20.90;91.80;;;;;;4947403;29;20035;-77
2023/09/10 23:31:18;;;;;;;8.88;6.60;;;20.80;92.10;;;;;;4947259;29;20024;-79
2023/09/10 23:33:46;;;;;;;;;;;20.80;92.50;;;;;;4947910;29;20032;-78
2023/09/10 23:36:12;;;;;;;10.25;7.93;;;20.80;92.50;;;;;;4946616;29;20124;-76
2023/09/10 23:38:44;;;;;;;12.15;7.47;;;20.70;92.70;;;;;;4946528;29;20036;-78
2023/09/10 23:41:10;;;;;;;9.70;7.18;;;20.70;92.70;;;;;;4965849;29;20070;-78
2023/09/10 23:43:48;;;;;;;10.52;8.20;;;20.70;93.10;;;;;;4960597;29;20055;-76
2023/09/10 23:46:17;;;;;;;12.13;8.10;;;20.70;93.00;;;;;;4948833;29;20066;-76
2023/09/10 23:49:00;;;;;;;9.82;7.90;;;20.70;93.10;;;;;;4966256;29;20069;-76
2023/09/10 23:51:34;;;;;;;12.18;7.72;;;20.60;93.50;;;;;;4965970;29;20039;-78
2023/09/10 23:54:00;;;;;;;11.45;8.02;;;20.60;93.80;;;;;;4965969;29;20376;-77
2023/09/10 23:56:28;;;;;;;11.68;8.02;;;20.60;94.10;;;;;;4965845;29;20034;-77
2023/09/10 23:58:54;;;;;;;13.20;8.07;;;20.50;94.20;;;;;;4949092;29;20059;-77
